createdAt,value
2022-08-02T00:00:09.696Z,15.53
2022-08-02T00:02:36.977Z,15.50
2022-08-02T00:05:04.989Z,15.30
2022-08-02T00:07:31.739Z,15.24
2022-08-02T00:09:58.474Z,15.16
2022-08-02T00:12:25.232Z,15.30
2022-08-02T00:14:52.559Z,15.33
2022-08-02T00:17:19.498Z,15.19
2022-08-02T00:19:46.597Z,15.07
2022-08-02T00:22:13.759Z,15.15
2022-08-02T00:24:40.634Z,15.15
2022-08-02T00:27:10.201Z,15.04
2022-08-02T00:29:42.586Z,15.11
2022-08-02T00:32:19.683Z,15.02
2022-08-02T00:34:46.567Z,14.79
2022-08-02T00:37:13.448Z,14.48
2022-08-02T00:39:40.530Z,14.67
2022-08-02T00:42:07.725Z,14.78
2022-08-02T00:44:34.676Z,14.88
2022-08-02T00:47:01.604Z,14.65
2022-08-02T00:49:28.719Z,14.65
2022-08-02T00:51:55.463Z,14.51
2022-08-02T00:54:22.207Z,14.44
2022-08-02T00:56:50.072Z,14.25
2022-08-02T00:59:18.613Z,14.34
2022-08-02T01:01:56.300Z,14.12
2022-08-02T01:04:29.816Z,14.16
2022-08-02T01:07:00.209Z,14.27
2022-08-02T01:09:27.091Z,14.07
2022-08-02T01:11:54.034Z,14.03
2022-08-02T01:14:23.060Z,14.14
2022-08-02T01:17:02.980Z,14.20
2022-08-02T01:19:29.598Z,14.20
2022-08-02T01:22:21.177Z,14.31
2022-08-02T01:25:09.197Z,14.38
2022-08-02T01:28:05.528Z,14.23
2022-08-02T01:30:34.807Z,14.28
2022-08-02T01:33:05.024Z,14.29
2022-08-02T01:35:47.148Z,14.02
2022-08-02T01:38:32.535Z,13.90
2022-08-02T01:41:01.624Z,13.91
2022-08-02T01:43:30.523Z,13.89
2022-08-02T01:46:00.483Z,14.10
2022-08-02T01:48:28.878Z,14.17
2022-08-02T01:50:57.669Z,14.15
2022-08-02T01:53:27.236Z,14.23
2022-08-02T01:55:57.465Z,14.06
2022-08-02T01:58:28.034Z,14.14
2022-08-02T02:00:57.742Z,14.10
2022-08-02T02:03:25.778Z,14.04
2022-08-02T02:05:58.180Z,13.98
2022-08-02T02:08:51.844Z,13.95
2022-08-02T02:12:13.880Z,13.84
2022-08-02T02:14:07.959Z,13.73
2022-08-02T02:16:35.028Z,13.86
2022-08-02T02:19:03.458Z,13.88
2022-08-02T02:21:31.367Z,13.65
2022-08-02T02:23:59.361Z,13.70
2022-08-02T02:26:29.683Z,13.67
2022-08-02T02:29:02.801Z,13.46
2022-08-02T02:31:34.731Z,13.38
2022-08-02T02:34:17.341Z,13.38
2022-08-02T02:36:50.569Z,13.35
2022-08-02T02:39:23.466Z,13.57
2022-08-02T02:41:51.811Z,13.34
2022-08-02T02:44:23.871Z,13.49
2022-08-02T02:46:53.753Z,13.21
2022-08-02T02:49:22.149Z,13.26
2022-08-02T02:51:50.508Z,13.39
2022-08-02T02:54:31.041Z,13.43
2022-08-02T02:57:04.362Z,13.27
2022-08-02T02:59:32.916Z,13.22
2022-08-02T03:02:00.260Z,13.27
2022-08-02T03:04:56.293Z,13.38
2022-08-02T03:07:17.810Z,13.41
2022-08-02T03:09:44.716Z,13.31
2022-08-02T03:12:14.553Z,13.32
2022-08-02T03:14:49.314Z,13.26
2022-08-02T03:17:16.653Z,13.28
2022-08-02T03:19:44.873Z,13.40
2022-08-02T03:22:11.949Z,13.47
2022-08-02T03:24:38.911Z,13.46
2022-08-02T03:27:05.538Z,13.21
2022-08-02T03:29:34.645Z,13.40
2022-08-02T03:32:02.047Z,13.41
2022-08-02T03:34:29.206Z,13.34
2022-08-02T03:36:57.396Z,13.42
2022-08-02T03:39:26.237Z,13.34
2022-08-02T03:41:54.077Z,13.34
2022-08-02T03:44:20.883Z,13.24
2022-08-02T03:46:50.771Z,12.68
2022-08-02T03:49:18.594Z,12.69
2022-08-02T03:51:46.722Z,12.75
2022-08-02T03:54:14.287Z,12.79
2022-08-02T03:56:41.475Z,12.81
2022-08-02T03:59:14.167Z,12.90
2022-08-02T04:01:41.527Z,12.91
2022-08-02T04:04:08.409Z,12.99
2022-08-02T04:06:35.383Z,13.12
2022-08-02T04:09:06.805Z,13.28
2022-08-02T04:11:33.665Z,13.29
2022-08-02T04:14:11.171Z,13.36
2022-08-02T04:16:44.719Z,13.42
2022-08-02T04:19:17.018Z,13.48
2022-08-02T04:21:51.595Z,13.56
2022-08-02T04:24:35.147Z,13.61
2022-08-02T04:27:19.168Z,13.72
2022-08-02T04:29:50.605Z,13.81
2022-08-02T04:32:18.309Z,13.71
2022-08-02T04:35:11.192Z,13.90
2022-08-02T04:37:33.964Z,13.97
2022-08-02T04:40:01.008Z,14.06
2022-08-02T04:42:27.678Z,13.88
2022-08-02T04:44:54.409Z,13.71
2022-08-02T04:47:40.034Z,13.64
2022-08-02T04:50:11.301Z,13.77
2022-08-02T04:52:39.207Z,13.86
2022-08-02T04:55:08.732Z,14.01
2022-08-02T04:57:53.982Z,14.09
2022-08-02T05:00:21.379Z,16.12
2022-08-02T05:02:48.761Z,18.50
2022-08-02T05:05:15.869Z,20.59
2022-08-02T05:07:42.532Z,22.25
2022-08-02T05:10:10.719Z,23.54
2022-08-02T05:12:42.193Z,24.87
2022-08-02T05:15:12.992Z,25.86
2022-08-02T05:17:47.757Z,26.88
2022-08-02T05:20:16.832Z,27.58
2022-08-02T05:22:47.151Z,28.33
2022-08-02T05:25:14.210Z,28.79
2022-08-02T05:27:43.131Z,29.03
2022-08-02T05:30:10.247Z,30.06
2022-08-02T05:32:50.799Z,30.30
2022-08-02T05:35:19.212Z,30.92
2022-08-02T05:37:46.682Z,31.36
2022-08-02T05:40:15.945Z,31.97
2022-08-02T05:42:43.937Z,31.97
2022-08-02T05:45:13.479Z,32.53
2022-08-02T05:47:41.136Z,31.08
2022-08-02T05:50:10.352Z,32.10
2022-08-02T05:52:46.310Z,32.47
2022-08-02T05:55:27.486Z,33.19
2022-08-02T05:58:09.105Z,33.57
2022-08-02T06:00:39.870Z,33.48
2022-08-02T06:03:19.185Z,33.86
2022-08-02T06:05:56.384Z,34.07
2022-08-02T06:08:29.990Z,34.22
2022-08-02T06:11:01.100Z,32.75
2022-08-02T06:13:27.916Z,32.69
2022-08-02T06:15:59.913Z,29.52
2022-08-02T06:18:31.672Z,27.64
2022-08-02T06:22:31.731Z,27.49
2022-08-02T06:23:57.755Z,30.05
2022-08-02T06:26:27.958Z,31.30
2022-08-02T06:28:56.531Z,30.84
2022-08-02T06:31:23.546Z,31.53
2022-08-02T06:33:50.579Z,30.57
2022-08-02T06:36:30.380Z,32.06
2022-08-02T06:39:09.070Z,30.71
2022-08-02T06:41:43.499Z,30.28
2022-08-02T06:44:44.402Z,30.57
2022-08-02T06:47:11.423Z,32.74
2022-08-02T06:49:52.326Z,31.11
2022-08-02T06:52:33.095Z,31.88
2022-08-02T06:55:01.777Z,32.72
2022-08-02T06:57:29.169Z,33.49
2022-08-02T06:59:56.478Z,34.62
2022-08-02T07:02:24.499Z,30.61
2022-08-02T07:04:51.827Z,31.44
2022-08-02T07:07:18.798Z,32.23
2022-08-02T07:09:56.587Z,31.84
2022-08-02T07:12:29.639Z,32.44
2022-08-02T07:14:57.210Z,32.02
2022-08-02T07:17:23.878Z,32.24
2022-08-02T07:19:50.522Z,31.66
2022-08-02T07:22:19.337Z,32.12
2022-08-02T07:24:45.956Z,32.50
2022-08-02T07:27:13.852Z,29.81
2022-08-02T07:29:45.873Z,30.92
2022-08-02T07:32:22.740Z,31.16
2022-08-02T07:34:53.633Z,30.56
2022-08-02T07:37:36.097Z,32.60
2022-08-02T07:40:13.910Z,30.72
2022-08-02T07:42:43.252Z,31.91
2022-08-02T07:45:11.317Z,31.18
2022-08-02T07:47:44.017Z,32.35
2022-08-02T07:50:12.238Z,30.94
2022-08-02T07:52:41.450Z,32.50
2022-08-02T07:55:10.564Z,32.11
2022-08-02T07:57:41.278Z,30.62
2022-08-02T08:00:11.403Z,30.03
2022-08-02T08:02:38.374Z,31.38
2022-08-02T08:05:07.032Z,30.30
2022-08-02T08:07:37.258Z,29.34
2022-08-02T08:10:06.781Z,30.45
2022-08-02T08:12:33.639Z,32.08
2022-08-02T08:15:00.394Z,31.24
2022-08-02T08:17:27.063Z,31.67
2022-08-02T08:19:58.024Z,32.10
2022-08-02T08:22:24.776Z,31.68
2022-08-02T08:24:51.527Z,29.91
2022-08-02T08:27:19.759Z,28.96
2022-08-02T08:29:46.531Z,28.31
2022-08-02T08:32:18.275Z,27.91
2022-08-02T08:34:46.907Z,27.56
2022-08-02T08:37:18.098Z,27.47
2022-08-02T08:39:57.211Z,28.10
2022-08-02T08:42:24.825Z,28.45
2022-08-02T08:44:51.708Z,27.67
2022-08-02T08:47:19.986Z,27.78
2022-08-02T08:49:54.076Z,27.36
2022-08-02T08:52:29.498Z,27.15
2022-08-02T08:55:00.104Z,27.27
2022-08-02T08:57:32.843Z,27.52
2022-08-02T09:00:00.161Z,27.60
2022-08-02T09:02:28.524Z,27.78
2022-08-02T09:04:55.941Z,28.27
2022-08-02T09:07:24.936Z,28.49
2022-08-02T09:09:51.739Z,28.62
2022-08-02T09:12:22.397Z,28.19
2022-08-02T09:14:50.462Z,27.81
2022-08-02T09:17:18.483Z,26.65
2022-08-02T09:19:46.255Z,27.20
2022-08-02T09:22:17.975Z,27.27
2022-08-02T09:24:47.328Z,27.08
2022-08-02T09:27:16.788Z,27.73
2022-08-02T09:30:12.049Z,27.71
2022-08-02T09:32:48.127Z,27.71
2022-08-02T09:36:07.355Z,27.50
2022-08-02T09:38:20.153Z,27.44
2022-08-02T09:40:49.915Z,27.52
2022-08-02T09:43:17.313Z,27.39
2022-08-02T09:45:46.928Z,28.04
2022-08-02T09:48:13.646Z,28.83
2022-08-02T09:50:45.431Z,28.49
2022-08-02T09:53:14.880Z,27.35
2022-08-02T09:55:42.595Z,27.63
2022-08-02T09:58:21.924Z,28.18
2022-08-02T10:00:57.234Z,27.02
2022-08-02T10:03:24.495Z,27.29
2022-08-02T10:06:02.389Z,27.24
2022-08-02T10:08:33.068Z,27.15
2022-08-02T10:11:01.755Z,26.77
2022-08-02T10:13:35.861Z,26.55
2022-08-02T10:16:07.111Z,26.40
2022-08-02T10:18:39.804Z,26.28
2022-08-02T10:21:16.363Z,26.19
2022-08-02T10:23:46.871Z,25.87
2022-08-02T10:26:16.914Z,25.84
2022-08-02T10:28:46.981Z,26.10
2022-08-02T10:31:17.651Z,26.11
2022-08-02T10:33:50.262Z,25.63
2022-08-02T10:36:19.411Z,25.65
2022-08-02T10:38:47.102Z,26.11
2022-08-02T10:41:14.285Z,26.37
2022-08-02T10:43:47.743Z,26.08
2022-08-02T10:46:21.315Z,26.66
2022-08-02T10:49:38.481Z,27.08
2022-08-02T10:52:02.694Z,27.53
2022-08-02T10:54:33.149Z,27.27
2022-08-02T10:57:01.670Z,26.48
2022-08-02T10:59:38.577Z,26.03
2022-08-02T11:02:06.695Z,26.48
2022-08-02T11:04:42.353Z,26.74
2022-08-02T11:07:21.296Z,27.26
2022-08-02T11:09:51.617Z,27.14
2022-08-02T11:12:20.723Z,26.72
2022-08-02T11:14:59.713Z,26.67
2022-08-02T11:17:29.016Z,27.43
2022-08-02T11:20:13.930Z,27.62
2022-08-02T11:22:42.321Z,27.53
2022-08-02T11:25:32.085Z,26.85
2022-08-02T11:28:10.676Z,26.70
2022-08-02T11:30:38.288Z,26.28
2022-08-02T11:33:05.037Z,26.38
2022-08-02T11:35:33.883Z,26.47
2022-08-02T11:38:18.214Z,26.47
2022-08-02T11:40:45.869Z,26.29
2022-08-02T11:43:20.701Z,26.36
2022-08-02T11:45:47.653Z,26.41
2022-08-02T11:48:14.376Z,26.71
2022-08-02T11:50:44.198Z,26.65
2022-08-02T11:53:15.597Z,26.98
2022-08-02T11:55:43.666Z,26.76
2022-08-02T11:58:11.826Z,26.80
2022-08-02T12:00:39.141Z,26.61
2022-08-02T12:03:06.717Z,26.54
2022-08-02T12:08:25.335Z,26.93
2022-08-02T12:10:53.358Z,26.49
2022-08-02T12:13:20.665Z,26.37
2022-08-02T12:15:47.748Z,26.27
2022-08-02T12:18:53.441Z,26.70
2022-08-02T12:21:26.853Z,26.39
2022-08-02T12:23:59.831Z,26.54
2022-08-02T12:26:28.765Z,26.42
2022-08-02T12:28:58.176Z,26.30
2022-08-02T12:31:56.776Z,26.54
2022-08-02T12:34:31.397Z,26.44
2022-08-02T12:37:11.667Z,26.69
2022-08-02T12:39:44.347Z,26.51
2022-08-02T12:42:13.890Z,26.30
2022-08-02T12:45:00.641Z,26.57
2022-08-02T12:47:31.399Z,26.60
2022-08-02T12:50:16.444Z,26.11
2022-08-02T12:52:43.228Z,26.59
2022-08-02T12:55:26.039Z,26.38
2022-08-02T12:58:12.786Z,26.33
2022-08-02T13:00:40.207Z,26.62
2022-08-02T13:04:10.515Z,26.76
2022-08-02T13:05:57.292Z,26.52
2022-08-02T13:08:28.553Z,26.17
2022-08-02T13:10:55.241Z,26.08
2022-08-02T13:13:22.479Z,26.17
2022-08-02T13:15:51.497Z,26.21
2022-08-02T13:18:18.613Z,26.08
2022-08-02T13:20:45.937Z,25.97
2022-08-02T13:23:20.963Z,25.66
2022-08-02T13:25:52.688Z,25.42
2022-08-02T13:28:19.861Z,25.51
2022-08-02T13:30:47.715Z,25.64
2022-08-02T13:33:15.673Z,25.50
2022-08-02T13:35:43.797Z,25.34
2022-08-02T13:38:10.812Z,25.60
2022-08-02T13:41:04.271Z,25.73
2022-08-02T13:43:53.644Z,25.63
2022-08-02T13:46:29.454Z,25.50
2022-08-02T13:48:56.803Z,25.45
2022-08-02T13:51:23.561Z,25.54
2022-08-02T13:53:50.258Z,25.47
2022-08-02T13:56:16.932Z,25.43
2022-08-02T13:58:43.644Z,25.50
2022-08-02T14:01:12.313Z,25.68
2022-08-02T14:04:08.272Z,25.42
2022-08-02T14:06:26.488Z,25.34
2022-08-02T14:08:53.519Z,25.46
2022-08-02T14:11:20.202Z,25.66
2022-08-02T14:13:47.050Z,25.20
2022-08-02T14:16:13.719Z,25.27
2022-08-02T14:18:40.467Z,25.52
2022-08-02T14:21:10.102Z,25.16
2022-08-02T14:23:50.280Z,25.45
2022-08-02T14:26:27.517Z,25.47
2022-08-02T14:28:55.265Z,25.16
2022-08-02T14:31:22.096Z,25.39
2022-08-02T14:33:48.820Z,24.97
2022-08-02T14:36:15.469Z,25.11
2022-08-02T14:38:55.203Z,25.18
2022-08-02T14:41:22.128Z,25.01
2022-08-02T14:44:04.301Z,25.13
2022-08-02T14:46:41.337Z,25.34
2022-08-02T14:49:14.377Z,25.41
2022-08-02T14:51:51.719Z,25.42
2022-08-02T14:54:18.497Z,25.12
2022-08-02T14:56:45.940Z,25.07
2022-08-02T14:59:14.910Z,25.10
2022-08-02T15:01:44.632Z,25.10
2022-08-02T15:04:11.352Z,25.06
2022-08-02T15:06:38.015Z,25.01
2022-08-02T15:09:04.819Z,24.88
2022-08-02T15:11:31.766Z,24.69
2022-08-02T15:14:15.637Z,24.89
2022-08-02T15:16:56.168Z,25.00
2022-08-02T15:19:29.469Z,24.83
2022-08-02T15:22:15.788Z,24.84
2022-08-02T15:24:46.327Z,24.93
2022-08-02T15:27:15.794Z,24.89
2022-08-02T15:29:43.483Z,24.98
2022-08-02T15:32:11.019Z,24.86
2022-08-02T15:34:38.067Z,24.85
2022-08-02T15:37:05.100Z,24.47
2022-08-02T15:39:31.827Z,24.36
2022-08-02T15:41:58.545Z,24.37
2022-08-02T15:44:25.408Z,24.56
2022-08-02T15:46:53.474Z,24.61
2022-08-02T15:49:24.567Z,24.59
2022-08-02T15:51:53.470Z,24.58
2022-08-02T15:54:20.681Z,24.60
2022-08-02T15:56:47.343Z,24.63
2022-08-02T15:59:14.153Z,24.55
2022-08-02T16:01:44.869Z,24.62
2022-08-02T16:04:17.463Z,24.66
2022-08-02T16:06:44.586Z,24.66
2022-08-02T16:09:11.772Z,24.55
2022-08-02T16:11:38.540Z,24.60
2022-08-02T16:14:06.004Z,24.54
2022-08-02T16:16:35.530Z,24.42
2022-08-02T16:19:45.822Z,24.24
2022-08-02T16:21:51.677Z,24.31
2022-08-02T16:24:18.665Z,24.10
2022-08-02T16:26:45.345Z,23.95
2022-08-02T16:29:12.207Z,23.98
2022-08-02T16:31:43.022Z,23.91
2022-08-02T16:34:10.608Z,23.97
2022-08-02T16:36:37.501Z,24.00
2022-08-02T16:39:05.720Z,23.90
2022-08-02T16:41:51.512Z,23.91
2022-08-02T16:44:26.862Z,23.87
2022-08-02T16:46:57.252Z,23.85
2022-08-02T16:50:04.866Z,23.73
2022-08-02T16:52:15.061Z,23.61
2022-08-02T16:54:42.245Z,23.50
2022-08-02T16:57:10.721Z,23.42
2022-08-02T16:59:42.884Z,23.34
2022-08-02T17:02:15.055Z,23.32
2022-08-02T17:04:45.456Z,23.02
2022-08-02T17:08:07.799Z,22.92
2022-08-02T17:10:04.584Z,22.89
2022-08-02T17:12:34.447Z,22.90
2022-08-02T17:15:36.241Z,22.78
2022-08-02T17:17:52.290Z,22.70
2022-08-02T17:20:20.276Z,22.63
2022-08-02T17:22:48.168Z,22.43
2022-08-02T17:25:17.500Z,22.40
2022-08-02T17:27:44.899Z,22.15
2022-08-02T17:30:13.359Z,21.96
2022-08-02T17:32:45.653Z,21.75
2022-08-02T17:35:15.447Z,21.77
2022-08-02T17:37:43.214Z,21.76
2022-08-02T17:40:23.817Z,21.30
2022-08-02T17:42:50.851Z,21.42
2022-08-02T17:45:25.688Z,21.45
2022-08-02T17:48:05.628Z,21.40
2022-08-02T17:50:34.180Z,21.42
2022-08-02T17:53:01.674Z,21.24
2022-08-02T17:55:30.973Z,21.26
2022-08-02T17:57:59.336Z,21.12
2022-08-02T18:00:37.376Z,20.98
2022-08-02T18:03:07.802Z,20.62
2022-08-02T18:05:39.917Z,20.57
2022-08-02T18:08:24.797Z,20.48
2022-08-02T18:10:53.690Z,20.35
2022-08-02T18:13:20.868Z,20.31
2022-08-02T18:15:48.188Z,20.01
2022-08-02T18:18:16.964Z,19.97
2022-08-02T18:20:45.985Z,19.57
2022-08-02T18:23:13.777Z,19.62
2022-08-02T18:25:45.711Z,19.67
2022-08-02T18:28:13.761Z,19.43
2022-08-02T18:30:40.604Z,19.30
2022-08-02T18:33:59.731Z,18.97
2022-08-02T18:35:55.752Z,19.17
2022-08-02T18:38:23.556Z,19.21
2022-08-02T18:40:51.103Z,19.25
2022-08-02T18:43:19.970Z,19.20
2022-08-02T18:46:07.304Z,19.14
2022-08-02T18:48:44.290Z,18.95
2022-08-02T18:51:13.702Z,18.86
2022-08-02T18:53:42.181Z,18.81
2022-08-02T18:56:20.158Z,18.70
2022-08-02T18:58:57.216Z,18.72
2022-08-02T19:01:33.592Z,18.65
2022-08-02T19:04:03.726Z,18.64
2022-08-02T19:06:30.756Z,18.65
2022-08-02T19:09:05.724Z,18.66
2022-08-02T19:11:41.023Z,18.60
2022-08-02T19:14:08.568Z,18.59
2022-08-02T19:16:36.850Z,18.37
2022-08-02T19:19:06.666Z,18.36
2022-08-02T19:22:17.740Z,18.31
2022-08-02T19:24:22.711Z,17.90
2022-08-02T19:26:51.648Z,17.96
2022-08-02T19:32:42.261Z,17.74
2022-08-02T19:35:01.102Z,17.72
2022-08-02T19:37:38.461Z,17.82
2022-08-02T19:40:07.979Z,17.80
2022-08-02T19:42:50.038Z,17.52
2022-08-02T19:45:50.044Z,17.22
2022-08-02T19:48:15.708Z,17.24
2022-08-02T19:50:44.243Z,17.26
2022-08-02T19:53:17.336Z,17.33
2022-08-02T19:56:01.372Z,17.39
2022-08-02T19:58:30.814Z,17.36
2022-08-02T20:00:59.268Z,17.29
2022-08-02T20:03:39.859Z,17.27
2022-08-02T20:06:15.720Z,17.17
2022-08-02T20:08:52.935Z,17.22
2022-08-02T20:11:23.284Z,17.16
2022-08-02T20:13:52.553Z,17.09
2022-08-02T20:16:27.154Z,16.95
2022-08-02T20:18:55.887Z,16.90
2022-08-02T20:21:36.449Z,16.91
2022-08-02T20:24:07.700Z,16.81
2022-08-02T20:26:35.220Z,16.82
2022-08-02T20:29:04.287Z,16.81
2022-08-02T20:31:31.330Z,16.80
2022-08-02T20:33:58.049Z,16.76
2022-08-02T20:36:26.511Z,16.64
2022-08-02T20:38:54.722Z,16.68
2022-08-02T20:41:22.743Z,16.59
2022-08-02T20:43:50.265Z,16.56
2022-08-02T20:46:16.950Z,16.51
2022-08-02T20:48:44.331Z,16.49
2022-08-02T20:51:14.051Z,16.48
2022-08-02T20:53:54.723Z,16.49
2022-08-02T20:56:23.647Z,16.59
2022-08-02T20:58:52.167Z,16.44
2022-08-02T21:01:20.974Z,16.32
2022-08-02T21:03:58.306Z,16.36
2022-08-02T21:06:28.157Z,16.25
2022-08-02T21:08:55.738Z,16.13
2022-08-02T21:11:25.558Z,16.24
2022-08-02T21:14:07.641Z,16.13
2022-08-02T21:16:36.384Z,16.21
2022-08-02T21:19:08.210Z,16.15
2022-08-02T21:21:36.942Z,16.21
2022-08-02T21:24:04.000Z,16.10
2022-08-02T21:26:32.715Z,15.86
2022-08-02T21:29:03.708Z,16.03
2022-08-02T21:31:36.612Z,16.06
2022-08-02T21:34:21.959Z,16.06
2022-08-02T21:36:52.628Z,16.00
2022-08-02T21:39:20.405Z,15.98
2022-08-02T21:41:47.531Z,15.99
2022-08-02T21:44:16.358Z,15.99
2022-08-02T21:46:49.522Z,15.99
2022-08-02T21:49:20.862Z,16.04
2022-08-02T21:51:54.645Z,15.97
2022-08-02T21:54:22.197Z,15.91
2022-08-02T21:56:53.140Z,15.73
2022-08-02T21:59:25.719Z,15.61
2022-08-02T22:01:54.275Z,15.67
2022-08-02T22:04:23.904Z,15.59
2022-08-02T22:06:50.851Z,15.44
2022-08-02T22:09:43.628Z,15.32
2022-08-02T22:12:10.235Z,15.40
2022-08-02T22:14:39.916Z,15.53
2022-08-02T22:17:08.826Z,15.59
2022-08-02T22:19:36.394Z,15.61
2022-08-02T22:22:03.131Z,15.62
2022-08-02T22:24:30.484Z,15.30
2022-08-02T22:26:57.474Z,15.10
2022-08-02T22:29:24.176Z,15.08
2022-08-02T22:31:52.327Z,15.14
2022-08-02T22:34:36.640Z,15.21
2022-08-02T22:37:07.626Z,15.24
2022-08-02T22:40:08.526Z,15.28
2022-08-02T22:42:36.634Z,15.29
2022-08-02T22:45:09.997Z,15.28
2022-08-02T22:47:38.678Z,15.23
2022-08-02T22:50:17.706Z,15.20
2022-08-02T22:52:46.934Z,15.13
2022-08-02T22:55:17.491Z,15.15
2022-08-02T22:57:56.560Z,15.18
2022-08-02T22:59:00.377Z,17.89
2022-08-02T23:00:25.430Z,15.08
2022-08-02T23:02:52.206Z,14.88
2022-08-02T23:05:20.875Z,14.88
2022-08-02T23:07:49.229Z,14.99
2022-08-02T23:10:18.121Z,14.94
2022-08-02T23:12:44.741Z,14.99
2022-08-02T23:15:13.664Z,15.01
2022-08-02T23:18:00.111Z,15.00
2022-08-02T23:20:26.892Z,14.94
2022-08-02T23:22:55.746Z,14.86
2022-08-02T23:25:22.704Z,14.81
2022-08-02T23:27:51.120Z,14.66
2022-08-02T23:30:19.100Z,14.60
2022-08-02T23:32:46.839Z,14.56
2022-08-02T23:35:16.604Z,14.67
2022-08-02T23:37:59.349Z,14.75
2022-08-02T23:40:39.006Z,14.79
2022-08-02T23:43:14.337Z,14.90
2022-08-02T23:45:44.078Z,14.89
2022-08-02T23:48:10.737Z,14.85
2022-08-02T23:50:37.533Z,14.84
2022-08-02T23:53:05.908Z,14.80
2022-08-02T23:55:32.597Z,14.71
2022-08-02T23:57:59.340Z,14.62
